Terminal Aerodrome Forecast
Issued by NWS

Home | Current Version | Previous Version | Text Only | Print | Product List | Glossary On
Versions: 1 2 3 4 5 6 7 8 9 10 11 12 13 14 15 16 17 18 19 20 21 22 23 24 25 26 27
000
FTUS46 KEKA 190241 AAA
TAFUKI
TAF AMD
KUKI 190241Z 1903/1924 17010KT 3SM RA BR SCT020 OVC040
      TEMPO 1903/1906 2SM -RA BR FEW015 OVC025
     FM190600 15008KT 4SM -RA BR FEW008 OVC015
      TEMPO 1906/1910 3SM SHRA BR OVC008
     FM191500 19004KT 4SM -SHRA BR SCT025 OVC050=

USA.gov is the U.S. government's official web portal to all federal, state and local government web resources and services.